Macomb, MI (48044)

2:42 PM EST on February 01, 2015 (GMT -0500)
Valley Forge Subdivision | Change Station
CLOSE
Current Station
Personal Weather Station
Location: Macomb, MI
Elevation: 607 ft
Nearby Weather Stations

Elev 607 ft 42.65 °N, 82.95 °W | Updated 8 seconds ago

Snow
Snow
21.7 °F
Feels Like 17 °F
N
3.6
Wind Variable Wind from East
Gusts 7.2 mph

Today
High -- | Low -- °F
--% Chance of Precip.
Yesterday
High -- | Low -- °F
Precip. -- in
7:46 AM 5:44 PM
Waxing Gibbous, 96% visible
Pressure 29.96 in
Visibility 0.5 miles
Clouds
Windchill 17 °F
Dew Point 19 °F
Humidity 90%
Rainfall 0.00 in
Snow Depth Not available.
UV Not available.
Pollen .10 out of 12
Air Quality Not available.
Flu Activity Not available.
SPECI KMTC 011916Z 03013KT 1/2SM R01/5000FT SN FZFG VV010 M06/M08 A2996

More Conditions Fewer Conditions

Pressure 29.96 in
Visibility 0.5 miles
Clouds
Windchill 17 °F
Dew Point 19 °F
Humidity 90%
Rainfall 0.00 in
Snow Depth Not available.
UV Not available.
Pollen .10 out of 12
Air Quality Not available.
Flu Activity Not available.
SPECI KMTC 011916Z 03013KT 1/2SM R01/5000FT SN FZFG VV010 M06/M08 A2996

More Conditions Fewer Conditions

10-Day Weather Forecast

Almanac

Astronomy

Feb. 01, 2015 Rise Set
Actual Time
Civil Twilight
Nautical Twilight
Astronomical Twilight
Moon
Length of Visible Light
Length of Day
Tomorrow will be .
, % of the Moon is Illuminated

Today's Extremes

State Highs State Lows

Community

WunderPhotos

Upload Photos

1,792,471 photos uploaded!

WunderBlogs® & News

Nearby

Air Quality

  Air Quality AQ Index Pollutant
Not available.

Snow Depth

Station Depth Elevation

Earthquake Activity

City Distance Mag. Time & Date
Minimum magnitude displayed is 2.5.

Coastal Water Temperatures

Place Temperature

Nearby Weather Stations